createdAt,value
2022-10-28T00:02:23.085Z,99890.40
2022-10-28T00:04:54.562Z,99893.51
2022-10-28T00:07:26.040Z,99889.30
2022-10-28T00:09:57.460Z,99886.83
2022-10-28T00:12:28.916Z,99885.27
2022-10-28T00:15:00.383Z,99881.89
2022-10-28T00:17:31.833Z,99885.73
2022-10-28T00:20:03.292Z,99888.52
2022-10-28T00:22:34.686Z,99881.98
2022-10-28T00:25:07.223Z,99878.74
2022-10-28T00:27:38.642Z,99880.66
2022-10-28T00:30:11.771Z,99873.08
2022-10-28T00:32:43.207Z,99867.08
2022-10-28T00:35:14.905Z,99870.11
2022-10-28T00:37:46.287Z,99865.81
2022-10-28T00:40:18.056Z,99865.46
2022-10-28T00:42:49.445Z,99861.89
2022-10-28T00:45:21.198Z,99858.02
2022-10-28T00:47:57.554Z,99860.60
2022-10-28T00:50:42.246Z,99854.48
2022-10-28T00:53:18.467Z,99853.14
2022-10-28T00:55:51.966Z,99850.27
2022-10-28T00:58:27.632Z,99847.36
2022-10-28T01:00:59.403Z,99848.81
2022-10-28T01:03:30.849Z,99847.98
2022-10-28T01:06:03.795Z,99848.29
2022-10-28T01:08:35.292Z,99844.80
2022-10-28T01:11:41.459Z,99841.85
2022-10-28T01:14:25.233Z,99835.88
2022-10-28T01:17:17.431Z,99837.45
2022-10-28T01:20:18.476Z,99832.77
2022-10-28T01:22:58.727Z,99829.88
2022-10-28T01:25:59.532Z,99836.75
2022-10-28T01:29:17.639Z,99842.84
2022-10-28T01:31:55.456Z,99837.09
2022-10-28T01:34:33.583Z,99831.30
2022-10-28T01:37:12.958Z,99827.60
2022-10-28T01:39:52.420Z,99827.17
2022-10-28T01:42:29.882Z,99827.66
2022-10-28T01:45:11.787Z,99822.91
2022-10-28T01:47:48.427Z,99819.42
2022-10-28T01:50:26.278Z,99815.90
2022-10-28T01:53:02.947Z,99824.11
2022-10-28T01:55:39.635Z,99818.40
2022-10-28T01:58:14.591Z,99814.95
2022-10-28T02:00:47.701Z,99813.06
2022-10-28T02:03:19.801Z,99809.69
2022-10-28T02:05:54.137Z,99809.08
2022-10-28T02:08:50.780Z,99811.52
2022-10-28T02:11:42.708Z,99809.60
2022-10-28T02:14:29.467Z,99807.13
2022-10-28T02:17:09.249Z,99804.94
2022-10-28T02:19:50.027Z,99805.08
2022-10-28T02:22:28.352Z,99802.90
2022-10-28T02:25:08.990Z,99803.38
2022-10-28T02:27:48.675Z,99804.94
2022-10-28T02:30:25.533Z,99803.03
2022-10-28T02:33:00.587Z,99797.95
2022-10-28T02:35:37.741Z,99797.28
2022-10-28T02:38:15.943Z,99794.42
2022-10-28T02:43:31.158Z,99786.60
2022-10-28T02:46:06.327Z,99788.20
2022-10-28T02:48:41.319Z,99779.55
2022-10-28T02:51:18.397Z,99781.14
2022-10-28T02:54:00.293Z,99777.66
2022-10-28T02:56:33.982Z,99770.96
2022-10-28T02:59:09.464Z,99765.19
2022-10-28T03:01:41.119Z,99759.08
2022-10-28T03:04:12.753Z,99761.22
2022-10-28T03:06:44.232Z,99763.06
2022-10-28T03:09:15.680Z,99770.89
2022-10-28T03:11:47.034Z,99769.02
2022-10-28T03:14:18.458Z,99771.09
2022-10-28T03:16:50.977Z,99767.06
2022-10-28T03:19:22.393Z,99765.16
2022-10-28T03:21:53.947Z,99768.79
2022-10-28T03:24:25.397Z,99766.77
2022-10-28T03:26:56.850Z,99765.64
2022-10-28T03:29:28.227Z,99758.52
2022-10-28T03:31:59.693Z,99759.69
2022-10-28T03:34:31.132Z,99755.43
2022-10-28T03:37:02.595Z,99752.37
2022-10-28T03:39:34.197Z,99758.10
2022-10-28T03:42:06.012Z,99747.60
2022-10-28T03:44:37.482Z,99744.91
2022-10-28T03:47:09.147Z,99745.11
2022-10-28T03:49:40.647Z,99750.43
2022-10-28T03:52:12.117Z,99746.52
2022-10-28T03:54:43.603Z,99749.29
2022-10-28T03:57:15.191Z,99755.45
2022-10-28T03:59:46.648Z,99755.81
2022-10-28T04:02:18.182Z,99758.52
2022-10-28T04:04:49.713Z,99759.23
2022-10-28T04:07:21.139Z,99758.36
2022-10-28T04:09:52.602Z,99752.85
2022-10-28T04:12:24.039Z,99759.33
2022-10-28T04:14:55.493Z,99752.52
2022-10-28T04:17:27.114Z,99749.94
2022-10-28T04:19:58.516Z,99755.07
2022-10-28T04:22:29.950Z,99752.22
2022-10-28T04:25:01.349Z,99746.61
2022-10-28T04:27:32.857Z,99745.44
2022-10-28T04:30:06.175Z,99748.27
2022-10-28T04:32:37.681Z,99745.23
2022-10-28T04:35:11.834Z,99735.55
2022-10-28T04:37:43.908Z,99736.25
2022-10-28T04:40:16.006Z,99734.65
2022-10-28T04:42:47.553Z,99728.90
2022-10-28T04:45:19.112Z,99728.77
2022-10-28T04:47:50.528Z,99733.29
2022-10-28T04:50:21.935Z,99738.06
2022-10-28T04:52:53.604Z,99749.70
2022-10-28T04:55:25.164Z,99751.32
2022-10-28T04:58:01.910Z,99743.21
2022-10-28T05:00:33.506Z,99739.95
2022-10-28T05:03:05.828Z,99735.38
2022-10-28T05:05:37.475Z,99733.73
2022-10-28T05:08:09.499Z,99730.06
2022-10-28T05:10:41.095Z,99727.79
2022-10-28T05:13:12.549Z,99714.14
2022-10-28T05:15:44.160Z,99710.79
2022-10-28T05:18:15.603Z,99715.70
2022-10-28T05:20:47.199Z,99717.23
2022-10-28T05:23:18.703Z,99718.26
2022-10-28T05:25:50.264Z,99714.13
2022-10-28T05:28:22.811Z,99719.11
2022-10-28T05:30:54.354Z,99709.31
2022-10-28T05:33:25.989Z,99712.17
2022-10-28T05:35:59.739Z,99717.86
2022-10-28T05:38:29.809Z,99717.10
2022-10-28T05:41:01.828Z,99723.25
2022-10-28T05:43:33.290Z,99724.14
2022-10-28T05:46:05.356Z,99726.33
2022-10-28T05:48:37.147Z,99726.64
2022-10-28T05:51:08.822Z,99728.22
2022-10-28T05:53:41.752Z,99728.31
2022-10-28T05:56:13.179Z,99727.85
2022-10-28T05:58:44.734Z,99725.13
2022-10-28T06:01:16.732Z,99725.34
2022-10-28T06:03:48.292Z,99723.08
2022-10-28T06:06:20.933Z,99722.42
2022-10-28T06:08:52.319Z,99722.79
2022-10-28T06:11:22.200Z,99718.63
2022-10-28T06:13:53.750Z,99718.63
2022-10-28T06:16:25.444Z,99715.64
2022-10-28T06:18:56.964Z,99724.60
2022-10-28T06:21:28.437Z,99721.36
2022-10-28T06:23:59.827Z,99724.70
2022-10-28T06:26:31.443Z,99735.58
2022-10-28T06:29:03.049Z,99743.55
2022-10-28T06:31:35.388Z,99743.48
2022-10-28T06:34:07.991Z,99739.36
2022-10-28T06:36:39.800Z,99743.34
2022-10-28T06:39:11.337Z,99740.48
2022-10-28T06:41:43.369Z,99743.86
2022-10-28T06:44:14.884Z,99740.80
2022-10-28T06:46:47.826Z,99747.48
2022-10-28T06:49:19.234Z,99746.34
2022-10-28T06:51:51.066Z,99742.11
2022-10-28T06:54:23.914Z,99746.12
2022-10-28T06:56:55.341Z,99749.86
2022-10-28T06:59:26.742Z,99755.77
2022-10-28T07:01:58.319Z,99759.54
2022-10-28T07:04:30.150Z,99761.23
2022-10-28T07:07:01.624Z,99758.77
2022-10-28T07:09:33.980Z,99764.85
2022-10-28T07:12:05.833Z,99760.02
2022-10-28T07:14:38.529Z,99759.73
2022-10-28T07:17:10.032Z,99755.67
2022-10-28T07:19:41.459Z,99752.60
2022-10-28T07:22:12.868Z,99751.40
2022-10-28T07:24:44.350Z,99751.17
2022-10-28T07:27:16.096Z,99746.16
2022-10-28T07:29:47.616Z,99747.21
2022-10-28T07:32:19.050Z,99747.95
2022-10-28T07:34:50.607Z,99742.92
2022-10-28T07:37:22.038Z,99740.39
2022-10-28T07:39:53.513Z,99741.38
2022-10-28T07:42:24.916Z,99743.11
2022-10-28T07:44:56.276Z,99739.44
2022-10-28T07:47:27.845Z,99741.29
2022-10-28T07:49:59.251Z,99738.64
2022-10-28T07:52:30.854Z,99736.94
2022-10-28T07:55:02.433Z,99735.52
2022-10-28T07:57:34.842Z,99736.35
2022-10-28T08:00:09.130Z,99734.67
2022-10-28T08:02:41.000Z,99733.26
2022-10-28T08:05:13.006Z,99728.21
2022-10-28T08:07:44.985Z,99729.27
2022-10-28T08:10:16.471Z,99727.54
2022-10-28T08:12:47.927Z,99723.70
2022-10-28T08:15:22.771Z,99721.13
2022-10-28T08:17:55.444Z,99717.58
2022-10-28T08:20:27.790Z,99710.02
2022-10-28T08:23:02.880Z,99709.84
2022-10-28T08:25:38.360Z,99710.77
2022-10-28T08:28:09.801Z,99714.56
2022-10-28T08:30:56.657Z,99713.77
2022-10-28T08:33:29.196Z,99712.84
2022-10-28T08:36:00.630Z,99708.98
2022-10-28T08:38:32.203Z,99706.17
2022-10-28T08:41:14.520Z,99704.19
2022-10-28T08:44:00.301Z,99706.15
2022-10-28T08:46:49.785Z,99704.12
2022-10-28T08:49:24.388Z,99709.15
2022-10-28T08:52:00.954Z,99708.58
2022-10-28T08:54:38.980Z,99709.73
2022-10-28T08:57:18.290Z,99709.86
2022-10-28T08:59:56.920Z,99706.80
2022-10-28T09:02:32.087Z,99705.13
2022-10-28T09:05:16.582Z,99703.27
2022-10-28T09:07:48.295Z,99690.70
2022-10-28T09:10:26.597Z,99687.66
2022-10-28T09:13:05.601Z,99685.17
2022-10-28T09:15:43.809Z,99683.79
2022-10-28T09:18:22.188Z,99681.36
2022-10-28T09:20:56.224Z,99682.94
2022-10-28T09:23:33.251Z,99685.94
2022-10-28T09:26:17.870Z,99689.70
2022-10-28T09:28:59.367Z,99694.76
2022-10-28T09:31:35.974Z,99691.90
2022-10-28T09:34:18.090Z,99695.04
2022-10-28T09:36:55.449Z,99689.67
2022-10-28T09:39:32.057Z,99692.61
2022-10-28T09:42:05.655Z,99700.25
2022-10-28T09:44:45.247Z,99701.39
2022-10-28T09:47:23.118Z,99704.63
2022-10-28T09:49:58.126Z,99701.80
2022-10-28T09:52:36.010Z,99698.48
2022-10-28T09:55:20.254Z,99698.38
2022-10-28T09:57:52.605Z,99701.94
2022-10-28T10:00:25.711Z,99702.39
2022-10-28T10:02:59.806Z,99697.36
2022-10-28T10:05:34.214Z,99694.71
2022-10-28T10:08:08.044Z,99687.54
2022-10-28T10:10:44.794Z,99683.10
2022-10-28T10:13:19.386Z,99676.84
2022-10-28T10:15:53.686Z,99678.21
2022-10-28T10:18:30.177Z,99677.50
2022-10-28T10:21:02.721Z,99678.80
2022-10-28T10:23:36.994Z,99679.16
2022-10-28T10:26:12.893Z,99673.98
2022-10-28T10:28:49.025Z,99675.09
2022-10-28T10:31:22.316Z,99670.55
2022-10-28T10:33:57.630Z,99672.77
2022-10-28T10:36:32.046Z,99673.76
2022-10-28T10:39:05.296Z,99671.34
2022-10-28T10:41:39.492Z,99666.73
2022-10-28T10:44:32.698Z,99660.83
2022-10-28T10:47:24.760Z,99661.07
2022-10-28T10:50:22.218Z,99663.40
2022-10-28T10:52:58.542Z,99662.96
2022-10-28T10:55:38.637Z,99662.45
2022-10-28T10:58:23.099Z,99670.70
2022-10-28T11:00:57.120Z,99672.90
2022-10-28T11:03:36.769Z,99675.47
2022-10-28T11:06:24.542Z,99674.55
2022-10-28T11:09:01.403Z,99675.69
2022-10-28T11:11:37.742Z,99675.10
2022-10-28T11:14:25.680Z,99669.80
2022-10-28T11:16:58.990Z,99663.81
2022-10-28T11:19:34.631Z,99662.22
2022-10-28T11:22:22.267Z,99660.73
2022-10-28T11:25:15.790Z,99659.87
2022-10-28T11:28:03.135Z,99658.08
2022-10-28T11:30:49.156Z,99659.08
2022-10-28T11:33:30.124Z,99661.39
2022-10-28T11:36:16.438Z,99662.70
2022-10-28T11:39:00.908Z,99664.33
2022-10-28T11:41:46.237Z,99656.90
2022-10-28T11:44:30.644Z,99655.77
2022-10-28T11:47:16.736Z,99652.79
2022-10-28T11:50:21.723Z,99652.55
2022-10-28T11:53:13.801Z,99647.90
2022-10-28T11:55:51.941Z,99641.33
2022-10-28T11:58:32.563Z,99640.58
2022-10-28T12:01:13.364Z,99639.05
2022-10-28T12:04:02.270Z,99640.04
2022-10-28T12:06:50.788Z,99637.48
2022-10-28T12:09:34.388Z,99638.04
2022-10-28T12:12:16.999Z,99638.34
2022-10-28T12:15:01.416Z,99639.48
2022-10-28T12:17:41.523Z,99640.13
2022-10-28T12:20:20.750Z,99634.90
2022-10-28T12:22:58.082Z,99629.91
2022-10-28T12:25:33.719Z,99627.03
2022-10-28T12:28:21.297Z,99628.60
2022-10-28T12:30:54.943Z,99625.30
2022-10-28T12:33:29.365Z,99626.06
2022-10-28T12:36:20.217Z,99622.20
2022-10-28T12:38:57.387Z,99616.70
2022-10-28T12:41:45.009Z,99612.56
2022-10-28T12:44:20.721Z,99607.67
2022-10-28T12:47:04.547Z,99610.35
2022-10-28T12:49:48.678Z,99611.39
2022-10-28T12:52:25.419Z,99608.22
2022-10-28T12:55:03.438Z,99608.30
2022-10-28T12:57:38.064Z,99607.70
2022-10-28T13:00:20.676Z,99609.02
2022-10-28T13:02:57.591Z,99609.40
2022-10-28T13:05:35.613Z,99609.98
2022-10-28T13:08:46.089Z,99612.02
2022-10-28T13:12:06.941Z,99609.51
2022-10-28T13:14:59.703Z,99604.01
2022-10-28T13:17:56.172Z,99601.77
2022-10-28T13:20:40.761Z,99603.14
2022-10-28T13:23:26.956Z,99601.74
2022-10-28T13:26:06.484Z,99599.35
2022-10-28T13:28:46.930Z,99598.20
2022-10-28T13:31:20.764Z,99599.91
2022-10-28T13:33:54.190Z,99601.91
2022-10-28T13:36:29.603Z,99599.18
2022-10-28T13:39:03.924Z,99595.77
2022-10-28T13:41:46.225Z,99596.64
2022-10-28T13:44:31.031Z,99592.09
2022-10-28T13:47:30.232Z,99593.76
2022-10-28T13:50:37.687Z,99591.52
2022-10-28T13:53:43.858Z,99586.91
2022-10-28T13:56:22.967Z,99592.84
2022-10-28T13:58:58.852Z,99591.78
2022-10-28T14:02:07.385Z,99589.77
2022-10-28T14:04:57.974Z,99590.88
2022-10-28T14:07:32.747Z,99591.64
2022-10-28T14:10:22.663Z,99594.80
2022-10-28T14:12:58.391Z,99596.48
2022-10-28T14:15:34.863Z,99596.32
2022-10-28T14:21:11.241Z,99593.08
2022-10-28T14:24:11.107Z,99586.34
2022-10-28T14:27:23.140Z,99588.79
2022-10-28T14:30:16.307Z,99588.25
2022-10-28T14:33:00.660Z,99587.40
2022-10-28T14:35:43.420Z,99581.13
2022-10-28T14:38:48.829Z,99577.67
2022-10-28T14:41:51.466Z,99575.66
2022-10-28T14:44:42.873Z,99576.63
2022-10-28T14:47:33.765Z,99577.08
2022-10-28T14:50:07.933Z,99576.20
2022-10-28T14:52:40.484Z,99574.95
2022-10-28T14:55:25.310Z,99569.88
2022-10-28T14:58:12.412Z,99575.11
2022-10-28T15:03:34.039Z,99570.89
2022-10-28T15:06:26.395Z,99574.08
2022-10-28T15:09:04.337Z,99574.41
2022-10-28T15:11:36.422Z,99570.07
2022-10-28T15:14:27.476Z,99567.05
2022-10-28T15:17:00.867Z,99566.52
2022-10-28T15:19:37.197Z,99566.08
2022-10-28T15:22:16.207Z,99566.85
2022-10-28T15:25:02.100Z,99570.08
2022-10-28T15:27:35.464Z,99567.95
2022-10-28T15:30:15.642Z,99566.80
2022-10-28T15:32:47.793Z,99567.86
2022-10-28T15:35:40.636Z,99564.83
2022-10-28T15:38:40.469Z,99564.03
2022-10-28T15:41:43.609Z,99564.44
2022-10-28T15:44:35.475Z,99567.58
2022-10-28T15:47:19.697Z,99573.00
2022-10-28T15:50:03.213Z,99579.30
2022-10-28T15:52:40.451Z,99576.90
2022-10-28T15:56:02.400Z,99572.75
2022-10-28T15:58:38.107Z,99569.20
2022-10-28T16:01:30.133Z,99573.36
2022-10-28T16:04:02.050Z,99570.89
2022-10-28T16:06:36.411Z,99570.02
2022-10-28T16:09:17.292Z,99570.52
2022-10-28T16:11:52.095Z,99572.14
2022-10-28T16:14:33.617Z,99571.71
2022-10-28T16:17:13.897Z,99578.85
2022-10-28T16:19:50.777Z,99579.15
2022-10-28T16:22:23.327Z,99579.77
2022-10-28T16:24:56.378Z,99578.94
2022-10-28T16:27:30.082Z,99570.89
2022-10-28T16:30:01.712Z,99565.86
2022-10-28T16:32:38.393Z,99569.16
2022-10-28T16:35:17.202Z,99566.01
2022-10-28T16:37:54.830Z,99566.66
2022-10-28T16:43:21.168Z,99570.37
2022-10-28T16:45:54.199Z,99572.98
2022-10-28T16:48:28.420Z,99572.66
2022-10-28T16:51:02.843Z,99575.31
2022-10-28T16:53:35.255Z,99570.23
2022-10-28T16:56:13.575Z,99564.05
2022-10-28T16:58:47.420Z,99568.64
2022-10-28T17:01:22.874Z,99569.80
2022-10-28T17:03:54.500Z,99573.33
2022-10-28T17:06:26.660Z,99573.75
2022-10-28T17:09:02.896Z,99573.73
2022-10-28T17:11:35.706Z,99579.23
2022-10-28T17:14:07.424Z,99580.58
2022-10-28T17:16:42.426Z,99582.95
2022-10-28T17:19:15.652Z,99586.84
2022-10-28T17:21:47.332Z,99586.82
2022-10-28T17:24:20.389Z,99586.27
2022-10-28T17:26:53.225Z,99588.11
2022-10-28T17:29:24.843Z,99581.31
2022-10-28T17:31:56.588Z,99580.83
2022-10-28T17:34:28.611Z,99584.90
2022-10-28T17:37:00.341Z,99577.58
2022-10-28T17:39:32.003Z,99578.97
2022-10-28T17:42:04.069Z,99575.70
2022-10-28T17:44:36.571Z,99575.80
2022-10-28T17:47:08.229Z,99579.55
2022-10-28T17:49:39.763Z,99575.16
2022-10-28T17:52:11.360Z,99573.48
2022-10-28T17:54:42.959Z,99570.46
2022-10-28T17:57:14.565Z,99568.14
2022-10-28T17:59:46.485Z,99567.42
2022-10-28T18:02:18.221Z,99561.39
2022-10-28T18:04:50.105Z,99563.20
2022-10-28T18:07:21.764Z,99561.27
2022-10-28T18:09:53.476Z,99559.70
2022-10-28T18:12:25.203Z,99560.40
2022-10-28T18:14:56.849Z,99556.41
2022-10-28T18:17:28.553Z,99556.27
2022-10-28T18:20:02.343Z,99552.06
2022-10-28T18:22:32.363Z,99550.06
2022-10-28T18:25:04.162Z,99544.13
2022-10-28T18:27:35.789Z,99542.77
2022-10-28T18:30:09.122Z,99545.11
2022-10-28T18:32:40.682Z,99541.74
2022-10-28T18:35:12.251Z,99538.17
2022-10-28T18:37:43.909Z,99541.41
2022-10-28T18:40:16.347Z,99533.58
2022-10-28T18:42:47.859Z,99536.99
2022-10-28T18:45:19.482Z,99537.83
2022-10-28T18:47:51.121Z,99539.13
2022-10-28T18:50:22.836Z,99540.10
2022-10-28T18:52:54.618Z,99540.93
2022-10-28T18:55:26.479Z,99541.45
2022-10-28T18:57:58.149Z,99540.04
2022-10-28T19:00:29.986Z,99541.78
2022-10-28T19:03:01.604Z,99540.91
2022-10-28T19:05:34.247Z,99541.29
2022-10-28T19:08:05.981Z,99542.22
2022-10-28T19:10:37.723Z,99540.48
2022-10-28T19:13:09.478Z,99544.17
2022-10-28T19:15:48.774Z,99544.35
2022-10-28T19:18:20.323Z,99547.25
2022-10-28T19:20:52.193Z,99551.00
2022-10-28T19:23:23.755Z,99549.69
2022-10-28T19:26:00.032Z,99547.36
2022-10-28T19:28:32.018Z,99547.79
2022-10-28T19:31:07.646Z,99551.44
2022-10-28T19:33:39.926Z,99558.02
2022-10-28T19:36:17.519Z,99560.21
2022-10-28T19:38:50.782Z,99563.36
2022-10-28T19:41:24.469Z,99562.24
2022-10-28T19:44:00.589Z,99564.27
2022-10-28T19:46:34.315Z,99567.73
2022-10-28T19:49:07.835Z,99560.23
2022-10-28T19:51:42.132Z,99566.73
2022-10-28T19:54:16.062Z,99565.65
2022-10-28T19:56:47.753Z,99564.54
2022-10-28T19:59:19.448Z,99567.36
2022-10-28T20:01:51.212Z,99569.14
2022-10-28T20:04:23.029Z,99573.79
2022-10-28T20:06:54.645Z,99580.23
2022-10-28T20:09:28.945Z,99579.40
2022-10-28T20:12:01.940Z,99580.95
2022-10-28T20:14:33.745Z,99577.03
2022-10-28T20:17:06.823Z,99576.39
2022-10-28T20:19:40.269Z,99573.48
2022-10-28T20:22:13.716Z,99570.77
2022-10-28T20:24:47.774Z,99563.32
2022-10-28T20:27:20.345Z,99562.03
2022-10-28T20:29:52.339Z,99566.35
2022-10-28T20:32:24.904Z,99560.66
2022-10-28T20:34:57.101Z,99563.15
2022-10-28T20:37:28.850Z,99565.75
2022-10-28T20:40:06.384Z,99558.63
2022-10-28T20:42:39.340Z,99554.29
2022-10-28T20:45:12.292Z,99555.66
2022-10-28T20:47:44.113Z,99555.46
2022-10-28T20:50:15.922Z,99554.42
2022-10-28T20:52:47.526Z,99556.60
2022-10-28T20:55:20.335Z,99558.95
2022-10-28T20:57:51.899Z,99554.60
2022-10-28T21:00:23.881Z,99556.31
2022-10-28T21:02:57.803Z,99556.84
2022-10-28T21:05:31.836Z,99552.59
2022-10-28T21:08:03.453Z,99549.05
2022-10-28T21:10:36.835Z,99549.89
2022-10-28T21:13:09.491Z,99548.73
2022-10-28T21:15:42.142Z,99544.72
2022-10-28T21:18:14.403Z,99538.64
2022-10-28T21:20:46.078Z,99536.61
2022-10-28T21:23:17.664Z,99531.09
2022-10-28T21:25:55.758Z,99530.83
2022-10-28T21:28:30.403Z,99534.30
2022-10-28T21:31:06.614Z,99538.71
2022-10-28T21:33:39.696Z,99540.77
2022-10-28T21:36:14.443Z,99543.02
2022-10-28T21:38:46.092Z,99544.56
2022-10-28T21:41:19.391Z,99542.91
2022-10-28T21:43:52.806Z,99542.48
2022-10-28T21:46:25.463Z,99534.92
2022-10-28T21:48:57.094Z,99526.13
2022-10-28T21:51:28.705Z,99526.20
2022-10-28T21:54:00.275Z,99529.95
2022-10-28T21:56:31.909Z,99535.51
2022-10-28T21:59:03.506Z,99532.73
2022-10-28T22:01:35.942Z,99529.46
2022-10-28T22:04:09.218Z,99525.56
2022-10-28T22:06:40.795Z,99529.37
2022-10-28T22:09:12.426Z,99532.27
2022-10-28T22:11:47.851Z,99535.94
2022-10-28T22:14:19.350Z,99539.17
2022-10-28T22:16:50.941Z,99538.65
2022-10-28T22:19:22.478Z,99531.62
2022-10-28T22:21:54.030Z,99532.10
2022-10-28T22:24:25.573Z,99524.36
2022-10-28T22:26:57.106Z,99518.60
2022-10-28T22:29:28.728Z,99508.28
2022-10-28T22:32:00.340Z,99502.62
2022-10-28T22:40:48.104Z,99506.85
2022-10-28T22:45:58.185Z,99508.89
2022-10-28T22:51:05.020Z,99508.35
2022-10-28T22:56:15.972Z,99518.79
2022-10-28T23:01:24.040Z,99503.50
2022-10-28T23:06:40.375Z,99502.30
2022-10-28T23:11:46.945Z,99495.95
2022-10-28T23:16:53.496Z,99492.61
2022-10-28T23:22:00.134Z,99487.92
2022-10-28T23:27:06.975Z,99483.11
2022-10-28T23:32:13.825Z,99478.33
2022-10-28T23:37:20.520Z,99473.02
2022-10-28T23:42:27.211Z,99479.02
2022-10-28T23:47:33.897Z,99477.77
2022-10-28T23:52:40.690Z,99471.09
2022-10-28T23:57:47.361Z,99462.89
